sensor_id;sensor_type;location;lat;lon;timestamp;P1;durP1;ratioP1;P2;durP2;ratioP2
5475;SDS011;2760;50.000;9.194;2023-06-19T00:02:10;12.70;;;8.30;;
5475;SDS011;2760;50.000;9.194;2023-06-19T00:04:38;9.40;;;8.37;;
5475;SDS011;2760;50.000;9.194;2023-06-19T00:07:05;9.63;;;8.63;;
5475;SDS011;2760;50.000;9.194;2023-06-19T00:09:33;9.63;;;8.63;;
5475;SDS011;2760;50.000;9.194;2023-06-19T00:12:00;12.30;;;8.50;;
5475;SDS011;2760;50.000;9.194;2023-06-19T00:14:29;12.43;;;8.90;;
5475;SDS011;2760;50.000;9.194;2023-06-19T00:16:59;11.03;;;8.13;;
5475;SDS011;2760;50.000;9.194;2023-06-19T00:19:26;9.27;;;8.10;;
5475;SDS011;2760;50.000;9.194;2023-06-19T00:21:53;8.97;;;8.03;;
5475;SDS011;2760;50.000;9.194;2023-06-19T00:24:22;10.17;;;8.60;;
5475;SDS011;2760;50.000;9.194;2023-06-19T00:26:49;12.03;;;8.37;;
5475;SDS011;2760;50.000;9.194;2023-06-19T00:29:16;13.23;;;8.70;;
5475;SDS011;2760;50.000;9.194;2023-06-19T00:31:44;10.43;;;8.60;;
5475;SDS011;2760;50.000;9.194;2023-06-19T00:34:12;11.97;;;9.50;;
5475;SDS011;2760;50.000;9.194;2023-06-19T00:36:39;9.83;;;8.40;;
5475;SDS011;2760;50.000;9.194;2023-06-19T00:39:07;9.90;;;8.87;;
5475;SDS011;2760;50.000;9.194;2023-06-19T00:41:35;12.83;;;8.83;;
5475;SDS011;2760;50.000;9.194;2023-06-19T00:44:02;9.63;;;8.63;;
5475;SDS011;2760;50.000;9.194;2023-06-19T00:46:30;10.07;;;9.07;;
5475;SDS011;2760;50.000;9.194;2023-06-19T00:48:57;9.40;;;8.50;;
5475;SDS011;2760;50.000;9.194;2023-06-19T00:51:26;10.20;;;9.03;;
5475;SDS011;2760;50.000;9.194;2023-06-19T00:53:54;10.80;;;9.20;;
5475;SDS011;2760;50.000;9.194;2023-06-19T00:56:21;9.70;;;8.70;;
5475;SDS011;2760;50.000;9.194;2023-06-19T00:58:49;10.33;;;9.23;;
5475;SDS011;2760;50.000;9.194;2023-06-19T01:01:17;11.23;;;8.90;;
5475;SDS011;2760;50.000;9.194;2023-06-19T01:03:46;12.70;;;8.47;;
5475;SDS011;2760;50.000;9.194;2023-06-19T01:06:14;9.40;;;8.50;;
5475;SDS011;2760;50.000;9.194;2023-06-19T01:08:51;10.07;;;8.60;;
5475;SDS011;2760;50.000;9.194;2023-06-19T01:11:24;9.30;;;8.40;;
5475;SDS011;2760;50.000;9.194;2023-06-19T01:14:06;11.30;;;9.10;;
5475;SDS011;2760;50.000;9.194;2023-06-19T01:16:35;9.20;;;8.30;;
5475;SDS011;2760;50.000;9.194;2023-06-19T01:19:04;9.33;;;8.37;;
5475;SDS011;2760;50.000;9.194;2023-06-19T01:21:35;10.00;;;8.60;;
5475;SDS011;2760;50.000;9.194;2023-06-19T01:24:05;9.63;;;8.50;;
5475;SDS011;2760;50.000;9.194;2023-06-19T01:26:32;9.87;;;8.70;;
5475;SDS011;2760;50.000;9.194;2023-06-19T01:28:59;9.33;;;8.33;;
5475;SDS011;2760;50.000;9.194;2023-06-19T01:31:29;10.93;;;8.60;;
5475;SDS011;2760;50.000;9.194;2023-06-19T01:34:00;10.40;;;8.73;;
5475;SDS011;2760;50.000;9.194;2023-06-19T01:36:29;10.83;;;9.10;;
5475;SDS011;2760;50.000;9.194;2023-06-19T01:38:58;11.67;;;9.23;;
5475;SDS011;2760;50.000;9.194;2023-06-19T01:41:28;9.07;;;8.07;;
5475;SDS011;2760;50.000;9.194;2023-06-19T01:43:58;9.80;;;8.80;;
5475;SDS011;2760;50.000;9.194;2023-06-19T01:46:26;12.00;;;8.73;;
5475;SDS011;2760;50.000;9.194;2023-06-19T01:48:54;8.93;;;8.03;;
5475;SDS011;2760;50.000;9.194;2023-06-19T01:51:21;9.17;;;8.20;;
5475;SDS011;2760;50.000;9.194;2023-06-19T01:53:48;12.93;;;9.50;;
5475;SDS011;2760;50.000;9.194;2023-06-19T01:56:16;9.50;;;8.50;;
5475;SDS011;2760;50.000;9.194;2023-06-19T01:58:46;14.60;;;8.17;;
5475;SDS011;2760;50.000;9.194;2023-06-19T02:01:13;8.67;;;7.77;;
5475;SDS011;2760;50.000;9.194;2023-06-19T02:03:40;13.13;;;9.03;;
5475;SDS011;2760;50.000;9.194;2023-06-19T02:06:08;9.70;;;8.70;;
5475;SDS011;2760;50.000;9.194;2023-06-19T02:08:37;10.57;;;8.70;;
5475;SDS011;2760;50.000;9.194;2023-06-19T02:11:04;12.10;;;9.20;;
5475;SDS011;2760;50.000;9.194;2023-06-19T02:13:32;12.43;;;9.20;;
5475;SDS011;2760;50.000;9.194;2023-06-19T02:16:00;9.47;;;8.50;;
5475;SDS011;2760;50.000;9.194;2023-06-19T02:18:28;11.33;;;8.33;;
5475;SDS011;2760;50.000;9.194;2023-06-19T02:20:55;12.70;;;8.63;;
5475;SDS011;2760;50.000;9.194;2023-06-19T02:23:22;9.77;;;8.37;;
5475;SDS011;2760;50.000;9.194;2023-06-19T02:25:50;11.50;;;8.93;;
5475;SDS011;2760;50.000;9.194;2023-06-19T02:28:17;10.17;;;7.90;;
5475;SDS011;2760;50.000;9.194;2023-06-19T02:30:45;9.00;;;8.10;;
5475;SDS011;2760;50.000;9.194;2023-06-19T02:33:14;10.30;;;9.30;;
5475;SDS011;2760;50.000;9.194;2023-06-19T02:35:41;14.17;;;8.50;;
5475;SDS011;2760;50.000;9.194;2023-06-19T02:38:09;10.80;;;9.70;;
5475;SDS011;2760;50.000;9.194;2023-06-19T02:40:37;10.50;;;9.50;;
5475;SDS011;2760;50.000;9.194;2023-06-19T02:43:04;12.00;;;8.57;;
5475;SDS011;2760;50.000;9.194;2023-06-19T02:45:31;10.13;;;9.13;;
5475;SDS011;2760;50.000;9.194;2023-06-19T02:47:59;13.63;;;9.00;;
5475;SDS011;2760;50.000;9.194;2023-06-19T02:50:29;11.90;;;8.70;;
5475;SDS011;2760;50.000;9.194;2023-06-19T02:52:57;12.47;;;9.30;;
5475;SDS011;2760;50.000;9.194;2023-06-19T02:55:24;11.33;;;9.50;;
5475;SDS011;2760;50.000;9.194;2023-06-19T02:57:52;16.60;;;8.60;;
5475;SDS011;2760;50.000;9.194;2023-06-19T03:00:20;9.87;;;8.87;;
5475;SDS011;2760;50.000;9.194;2023-06-19T03:02:47;12.47;;;9.30;;
5475;SDS011;2760;50.000;9.194;2023-06-19T03:05:16;18.80;;;8.77;;
5475;SDS011;2760;50.000;9.194;2023-06-19T03:07:45;10.10;;;8.57;;
5475;SDS011;2760;50.000;9.194;2023-06-19T03:10:12;18.63;;;8.97;;
5475;SDS011;2760;50.000;9.194;2023-06-19T03:12:40;11.00;;;9.30;;
5475;SDS011;2760;50.000;9.194;2023-06-19T03:15:08;13.03;;;8.80;;
5475;SDS011;2760;50.000;9.194;2023-06-19T03:17:40;10.30;;;8.90;;
5475;SDS011;2760;50.000;9.194;2023-06-19T03:20:10;13.20;;;10.00;;
5475;SDS011;2760;50.000;9.194;2023-06-19T03:22:41;13.87;;;9.63;;
5475;SDS011;2760;50.000;9.194;2023-06-19T03:25:14;14.60;;;9.17;;
5475;SDS011;2760;50.000;9.194;2023-06-19T03:27:46;11.27;;;9.80;;
5475;SDS011;2760;50.000;9.194;2023-06-19T03:30:14;9.90;;;8.60;;
5475;SDS011;2760;50.000;9.194;2023-06-19T03:32:46;11.10;;;8.77;;
5475;SDS011;2760;50.000;9.194;2023-06-19T03:35:51;14.27;;;9.73;;
5475;SDS011;2760;50.000;9.194;2023-06-19T03:38:38;9.90;;;8.90;;
5475;SDS011;2760;50.000;9.194;2023-06-19T03:41:09;9.43;;;8.63;;
5475;SDS011;2760;50.000;9.194;2023-06-19T03:43:38;10.87;;;9.50;;
5475;SDS011;2760;50.000;9.194;2023-06-19T03:46:07;10.97;;;9.77;;
5475;SDS011;2760;50.000;9.194;2023-06-19T03:48:35;15.77;;;10.00;;
5475;SDS011;2760;50.000;9.194;2023-06-19T03:51:02;11.90;;;10.57;;
5475;SDS011;2760;50.000;9.194;2023-06-19T03:53:30;11.80;;;9.67;;
5475;SDS011;2760;50.000;9.194;2023-06-19T03:55:58;12.50;;;9.70;;
5475;SDS011;2760;50.000;9.194;2023-06-19T03:58:29;14.50;;;9.23;;
5475;SDS011;2760;50.000;9.194;2023-06-19T04:01:01;17.63;;;10.03;;
5475;SDS011;2760;50.000;9.194;2023-06-19T04:03:31;13.90;;;10.10;;
5475;SDS011;2760;50.000;9.194;2023-06-19T04:05:59;10.33;;;9.23;;
5475;SDS011;2760;50.000;9.194;2023-06-19T04:08:26;14.90;;;10.43;;
5475;SDS011;2760;50.000;9.194;2023-06-19T04:10:55;13.87;;;10.17;;
5475;SDS011;2760;50.000;9.194;2023-06-19T04:13:22;14.00;;;9.60;;
5475;SDS011;2760;50.000;9.194;2023-06-19T04:15:53;13.27;;;10.20;;
5475;SDS011;2760;50.000;9.194;2023-06-19T04:18:20;19.47;;;10.63;;
5475;SDS011;2760;50.000;9.194;2023-06-19T04:20:48;13.13;;;9.60;;
5475;SDS011;2760;50.000;9.194;2023-06-19T04:23:16;10.80;;;9.10;;
5475;SDS011;2760;50.000;9.194;2023-06-19T04:25:43;10.90;;;9.60;;
5475;SDS011;2760;50.000;9.194;2023-06-19T04:28:10;13.97;;;9.50;;
5475;SDS011;2760;50.000;9.194;2023-06-19T04:30:38;10.63;;;8.87;;
5475;SDS011;2760;50.000;9.194;2023-06-19T04:33:06;13.33;;;10.07;;
5475;SDS011;2760;50.000;9.194;2023-06-19T04:35:34;12.73;;;9.50;;
5475;SDS011;2760;50.000;9.194;2023-06-19T04:38:05;12.60;;;8.70;;
5475;SDS011;2760;50.000;9.194;2023-06-19T04:40:32;11.33;;;9.10;;
5475;SDS011;2760;50.000;9.194;2023-06-19T04:43:01;11.50;;;10.07;;
5475;SDS011;2760;50.000;9.194;2023-06-19T04:45:31;19.20;;;15.13;;
5475;SDS011;2760;50.000;9.194;2023-06-19T04:47:58;14.20;;;10.83;;
5475;SDS011;2760;50.000;9.194;2023-06-19T04:50:30;18.13;;;9.70;;
5475;SDS011;2760;50.000;9.194;2023-06-19T04:52:57;16.23;;;9.83;;
5475;SDS011;2760;50.000;9.194;2023-06-19T04:55:24;12.70;;;9.83;;
5475;SDS011;2760;50.000;9.194;2023-06-19T04:57:51;10.70;;;9.23;;
5475;SDS011;2760;50.000;9.194;2023-06-19T05:00:19;12.60;;;9.50;;
5475;SDS011;2760;50.000;9.194;2023-06-19T05:02:48;17.80;;;10.40;;
5475;SDS011;2760;50.000;9.194;2023-06-19T05:05:16;11.73;;;10.23;;
5475;SDS011;2760;50.000;9.194;2023-06-19T05:07:45;18.50;;;10.83;;
5475;SDS011;2760;50.000;9.194;2023-06-19T05:10:12;15.63;;;9.90;;
5475;SDS011;2760;50.000;9.194;2023-06-19T05:12:41;15.80;;;8.87;;
5475;SDS011;2760;50.000;9.194;2023-06-19T05:15:09;10.40;;;9.30;;
5475;SDS011;2760;50.000;9.194;2023-06-19T05:17:40;16.93;;;9.37;;
5475;SDS011;2760;50.000;9.194;2023-06-19T05:20:08;13.20;;;9.00;;
5475;SDS011;2760;50.000;9.194;2023-06-19T05:22:37;15.47;;;9.90;;
5475;SDS011;2760;50.000;9.194;2023-06-19T05:25:06;23.50;;;9.50;;
5475;SDS011;2760;50.000;9.194;2023-06-19T05:27:34;17.43;;;9.60;;
5475;SDS011;2760;50.000;9.194;2023-06-19T05:30:01;19.37;;;10.60;;
5475;SDS011;2760;50.000;9.194;2023-06-19T05:32:29;15.60;;;9.83;;
5475;SDS011;2760;50.000;9.194;2023-06-19T05:34:57;20.50;;;10.10;;
5475;SDS011;2760;50.000;9.194;2023-06-19T05:37:25;13.07;;;10.10;;
5475;SDS011;2760;50.000;9.194;2023-06-19T05:39:53;9.17;;;8.27;;
5475;SDS011;2760;50.000;9.194;2023-06-19T05:42:22;17.07;;;9.73;;
5475;SDS011;2760;50.000;9.194;2023-06-19T05:44:49;20.50;;;9.27;;
5475;SDS011;2760;50.000;9.194;2023-06-19T05:47:19;12.43;;;9.90;;
5475;SDS011;2760;50.000;9.194;2023-06-19T05:49:49;17.17;;;11.27;;
5475;SDS011;2760;50.000;9.194;2023-06-19T05:52:24;10.70;;;8.80;;
5475;SDS011;2760;50.000;9.194;2023-06-19T05:54:52;12.73;;;9.93;;
5475;SDS011;2760;50.000;9.194;2023-06-19T05:57:26;13.00;;;8.80;;
5475;SDS011;2760;50.000;9.194;2023-06-19T06:00:03;29.97;;;9.57;;
5475;SDS011;2760;50.000;9.194;2023-06-19T06:02:38;17.23;;;9.37;;
5475;SDS011;2760;50.000;9.194;2023-06-19T06:05:06;13.77;;;7.70;;
5475;SDS011;2760;50.000;9.194;2023-06-19T06:07:35;10.13;;;7.80;;
5475;SDS011;2760;50.000;9.194;2023-06-19T06:10:02;8.43;;;7.60;;
5475;SDS011;2760;50.000;9.194;2023-06-19T06:12:41;10.03;;;7.90;;
5475;SDS011;2760;50.000;9.194;2023-06-19T06:15:10;15.03;;;7.20;;
5475;SDS011;2760;50.000;9.194;2023-06-19T06:17:56;15.20;;;6.83;;
5475;SDS011;2760;50.000;9.194;2023-06-19T06:20:24;8.40;;;7.47;;
5475;SDS011;2760;50.000;9.194;2023-06-19T06:23:06;9.80;;;6.63;;
5475;SDS011;2760;50.000;9.194;2023-06-19T06:25:35;15.67;;;7.80;;
5475;SDS011;2760;50.000;9.194;2023-06-19T06:28:06;7.33;;;6.53;;
5475;SDS011;2760;50.000;9.194;2023-06-19T06:30:33;9.40;;;6.47;;
5475;SDS011;2760;50.000;9.194;2023-06-19T06:33:01;10.73;;;6.00;;
5475;SDS011;2760;50.000;9.194;2023-06-19T06:35:28;10.77;;;6.80;;
5475;SDS011;2760;50.000;9.194;2023-06-19T06:37:56;12.03;;;6.50;;
5475;SDS011;2760;50.000;9.194;2023-06-19T06:40:28;7.47;;;6.17;;
5475;SDS011;2760;50.000;9.194;2023-06-19T06:42:56;7.23;;;5.90;;
5475;SDS011;2760;50.000;9.194;2023-06-19T06:45:26;6.27;;;5.67;;
5475;SDS011;2760;50.000;9.194;2023-06-19T06:47:53;6.90;;;5.20;;
5475;SDS011;2760;50.000;9.194;2023-06-19T06:50:23;6.73;;;5.00;;
5475;SDS011;2760;50.000;9.194;2023-06-19T06:52:51;7.17;;;5.50;;
5475;SDS011;2760;50.000;9.194;2023-06-19T06:55:18;7.43;;;4.70;;
5475;SDS011;2760;50.000;9.194;2023-06-19T06:57:46;9.63;;;5.67;;
5475;SDS011;2760;50.000;9.194;2023-06-19T07:00:15;6.23;;;5.70;;
5475;SDS011;2760;50.000;9.194;2023-06-19T07:02:46;13.83;;;5.30;;
5475;SDS011;2760;50.000;9.194;2023-06-19T07:05:16;7.83;;;5.00;;
5475;SDS011;2760;50.000;9.194;2023-06-19T07:07:45;5.80;;;5.20;;
5475;SDS011;2760;50.000;9.194;2023-06-19T07:10:14;7.20;;;5.17;;
5475;SDS011;2760;50.000;9.194;2023-06-19T07:12:45;5.50;;;4.70;;
5475;SDS011;2760;50.000;9.194;2023-06-19T07:15:14;14.67;;;5.20;;
5475;SDS011;2760;50.000;9.194;2023-06-19T07:17:42;8.83;;;5.60;;
5475;SDS011;2760;50.000;9.194;2023-06-19T07:20:12;8.50;;;5.20;;
5475;SDS011;2760;50.000;9.194;2023-06-19T07:22:43;6.67;;;5.20;;
5475;SDS011;2760;50.000;9.194;2023-06-19T07:25:11;5.90;;;4.73;;
5475;SDS011;2760;50.000;9.194;2023-06-19T07:27:41;6.97;;;4.57;;
5475;SDS011;2760;50.000;9.194;2023-06-19T07:30:11;7.20;;;5.27;;
5475;SDS011;2760;50.000;9.194;2023-06-19T07:32:54;8.07;;;6.07;;
5475;SDS011;2760;50.000;9.194;2023-06-19T07:35:31;5.43;;;4.93;;
5475;SDS011;2760;50.000;9.194;2023-06-19T07:38:00;16.70;;;7.17;;
5475;SDS011;2760;50.000;9.194;2023-06-19T07:40:27;6.33;;;5.83;;
5475;SDS011;2760;50.000;9.194;2023-06-19T07:42:57;10.83;;;6.03;;
5475;SDS011;2760;50.000;9.194;2023-06-19T07:46:00;6.50;;;5.00;;
5475;SDS011;2760;50.000;9.194;2023-06-19T07:48:27;5.27;;;4.77;;
5475;SDS011;2760;50.000;9.194;2023-06-19T07:51:09;11.10;;;5.20;;
5475;SDS011;2760;50.000;9.194;2023-06-19T07:53:36;7.97;;;5.03;;
5475;SDS011;2760;50.000;9.194;2023-06-19T07:56:06;7.27;;;5.23;;
5475;SDS011;2760;50.000;9.194;2023-06-19T07:58:43;5.90;;;5.17;;
5475;SDS011;2760;50.000;9.194;2023-06-19T08:01:26;7.90;;;5.80;;
5475;SDS011;2760;50.000;9.194;2023-06-19T08:03:53;7.90;;;6.00;;
5475;SDS011;2760;50.000;9.194;2023-06-19T08:06:20;8.10;;;5.40;;
5475;SDS011;2760;50.000;9.194;2023-06-19T08:08:48;8.10;;;5.43;;
5475;SDS011;2760;50.000;9.194;2023-06-19T08:11:16;8.63;;;6.20;;
5475;SDS011;2760;50.000;9.194;2023-06-19T08:13:44;5.83;;;5.00;;
5475;SDS011;2760;50.000;9.194;2023-06-19T08:16:11;6.03;;;5.43;;
5475;SDS011;2760;50.000;9.194;2023-06-19T08:18:41;5.57;;;5.07;;
5475;SDS011;2760;50.000;9.194;2023-06-19T08:21:10;7.53;;;5.20;;
5475;SDS011;2760;50.000;9.194;2023-06-19T08:23:38;6.07;;;5.30;;
5475;SDS011;2760;50.000;9.194;2023-06-19T08:26:09;7.03;;;5.40;;
5475;SDS011;2760;50.000;9.194;2023-06-19T08:28:40;14.17;;;5.33;;
5475;SDS011;2760;50.000;9.194;2023-06-19T08:31:08;9.73;;;5.03;;
5475;SDS011;2760;50.000;9.194;2023-06-19T08:33:37;9.40;;;5.30;;
5475;SDS011;2760;50.000;9.194;2023-06-19T08:36:06;15.70;;;5.23;;
5475;SDS011;2760;50.000;9.194;2023-06-19T08:38:33;10.70;;;5.43;;
5475;SDS011;2760;50.000;9.194;2023-06-19T08:41:01;15.10;;;6.00;;
5475;SDS011;2760;50.000;9.194;2023-06-19T08:43:30;8.23;;;6.10;;
5475;SDS011;2760;50.000;9.194;2023-06-19T08:46:01;6.17;;;5.60;;
5475;SDS011;2760;50.000;9.194;2023-06-19T08:48:37;5.43;;;4.93;;
5475;SDS011;2760;50.000;9.194;2023-06-19T08:51:06;8.40;;;5.50;;
5475;SDS011;2760;50.000;9.194;2023-06-19T08:53:36;5.90;;;5.40;;
5475;SDS011;2760;50.000;9.194;2023-06-19T08:56:10;13.47;;;5.30;;
5475;SDS011;2760;50.000;9.194;2023-06-19T08:58:43;6.70;;;5.17;;
5475;SDS011;2760;50.000;9.194;2023-06-19T09:01:10;8.33;;;5.60;;
5475;SDS011;2760;50.000;9.194;2023-06-19T09:03:38;8.03;;;5.80;;
5475;SDS011;2760;50.000;9.194;2023-06-19T09:06:07;9.57;;;5.97;;
5475;SDS011;2760;50.000;9.194;2023-06-19T09:08:37;7.27;;;5.57;;
5475;SDS011;2760;50.000;9.194;2023-06-19T09:11:07;5.83;;;5.13;;
5475;SDS011;2760;50.000;9.194;2023-06-19T09:13:39;6.67;;;5.40;;
5475;SDS011;2760;50.000;9.194;2023-06-19T09:16:23;8.20;;;5.80;;
5475;SDS011;2760;50.000;9.194;2023-06-19T09:19:21;7.03;;;5.50;;
5475;SDS011;2760;50.000;9.194;2023-06-19T09:21:51;8.47;;;6.23;;
5475;SDS011;2760;50.000;9.194;2023-06-19T09:24:19;10.30;;;6.30;;
5475;SDS011;2760;50.000;9.194;2023-06-19T09:27:13;9.13;;;5.00;;
5475;SDS011;2760;50.000;9.194;2023-06-19T09:29:50;6.63;;;5.40;;
5475;SDS011;2760;50.000;9.194;2023-06-19T09:33:06;8.87;;;4.80;;
5475;SDS011;2760;50.000;9.194;2023-06-19T09:35:37;5.73;;;5.20;;
5475;SDS011;2760;50.000;9.194;2023-06-19T09:38:22;8.43;;;5.80;;
5475;SDS011;2760;50.000;9.194;2023-06-19T09:40:52;6.63;;;5.70;;
5475;SDS011;2760;50.000;9.194;2023-06-19T09:43:23;5.47;;;4.97;;
5475;SDS011;2760;50.000;9.194;2023-06-19T09:46:00;9.53;;;5.10;;
5475;SDS011;2760;50.000;9.194;2023-06-19T09:48:40;18.40;;;6.10;;
5475;SDS011;2760;50.000;9.194;2023-06-19T09:51:16;6.10;;;5.43;;
5475;SDS011;2760;50.000;9.194;2023-06-19T10:00:22;5.73;;;5.23;;
5475;SDS011;2760;50.000;9.194;2023-06-19T10:03:34;5.87;;;4.80;;
5475;SDS011;2760;50.000;9.194;2023-06-19T10:06:12;6.33;;;5.20;;
5475;SDS011;2760;50.000;9.194;2023-06-19T10:08:44;18.23;;;6.40;;
5475;SDS011;2760;50.000;9.194;2023-06-19T10:14:13;7.00;;;5.03;;
5475;SDS011;2760;50.000;9.194;2023-06-19T10:16:47;7.47;;;5.33;;
5475;SDS011;2760;50.000;9.194;2023-06-19T10:19:29;11.77;;;5.33;;
5475;SDS011;2760;50.000;9.194;2023-06-19T10:22:03;7.40;;;5.50;;
5475;SDS011;2760;50.000;9.194;2023-06-19T10:24:33;6.77;;;5.07;;
5475;SDS011;2760;50.000;9.194;2023-06-19T10:27:43;5.60;;;5.10;;
5475;SDS011;2760;50.000;9.194;2023-06-19T10:30:26;10.30;;;5.50;;
5475;SDS011;2760;50.000;9.194;2023-06-19T10:35:50;11.20;;;5.50;;
5475;SDS011;2760;50.000;9.194;2023-06-19T10:38:21;9.30;;;5.57;;
5475;SDS011;2760;50.000;9.194;2023-06-19T10:40:51;6.00;;;5.43;;
5475;SDS011;2760;50.000;9.194;2023-06-19T10:43:25;8.30;;;5.60;;
5475;SDS011;2760;50.000;9.194;2023-06-19T10:45:57;9.70;;;5.27;;
5475;SDS011;2760;50.000;9.194;2023-06-19T10:48:47;5.97;;;5.37;;
5475;SDS011;2760;50.000;9.194;2023-06-19T10:51:20;5.20;;;4.80;;
5475;SDS011;2760;50.000;9.194;2023-06-19T10:54:09;5.80;;;5.30;;
5475;SDS011;2760;50.000;9.194;2023-06-19T10:57:03;7.43;;;5.30;;
5475;SDS011;2760;50.000;9.194;2023-06-19T10:59:35;6.83;;;6.00;;
5475;SDS011;2760;50.000;9.194;2023-06-19T11:02:17;7.03;;;5.70;;
5475;SDS011;2760;50.000;9.194;2023-06-19T11:04:54;13.27;;;6.10;;
5475;SDS011;2760;50.000;9.194;2023-06-19T11:07:22;13.40;;;5.83;;
5475;SDS011;2760;50.000;9.194;2023-06-19T11:09:50;25.53;;;8.33;;
5475;SDS011;2760;50.000;9.194;2023-06-19T11:12:30;9.60;;;5.20;;
5475;SDS011;2760;50.000;9.194;2023-06-19T11:15:02;5.67;;;5.03;;
5475;SDS011;2760;50.000;9.194;2023-06-19T11:17:33;6.27;;;5.13;;
5475;SDS011;2760;50.000;9.194;2023-06-19T11:20:08;5.73;;;5.23;;
5475;SDS011;2760;50.000;9.194;2023-06-19T11:22:37;5.97;;;4.93;;
5475;SDS011;2760;50.000;9.194;2023-06-19T11:25:06;6.10;;;5.50;;
5475;SDS011;2760;50.000;9.194;2023-06-19T11:27:36;9.80;;;5.73;;
5475;SDS011;2760;50.000;9.194;2023-06-19T11:30:09;5.20;;;4.70;;
5475;SDS011;2760;50.000;9.194;2023-06-19T11:32:38;5.43;;;4.93;;
5475;SDS011;2760;50.000;9.194;2023-06-19T11:35:19;5.77;;;5.27;;
5475;SDS011;2760;50.000;9.194;2023-06-19T11:37:47;5.30;;;4.80;;
5475;SDS011;2760;50.000;9.194;2023-06-19T11:40:22;5.43;;;4.60;;
5475;SDS011;2760;50.000;9.194;2023-06-19T11:42:52;5.80;;;4.73;;
5475;SDS011;2760;50.000;9.194;2023-06-19T11:45:48;8.50;;;5.10;;
5475;SDS011;2760;50.000;9.194;2023-06-19T11:48:23;7.13;;;5.20;;
5475;SDS011;2760;50.000;9.194;2023-06-19T11:51:09;6.37;;;4.70;;
5475;SDS011;2760;50.000;9.194;2023-06-19T11:53:56;5.93;;;5.30;;
5475;SDS011;2760;50.000;9.194;2023-06-19T11:56:43;9.80;;;5.67;;
5475;SDS011;2760;50.000;9.194;2023-06-19T11:59:38;5.93;;;5.43;;
5475;SDS011;2760;50.000;9.194;2023-06-19T12:02:44;7.73;;;5.23;;
5475;SDS011;2760;50.000;9.194;2023-06-19T12:05:26;7.13;;;5.87;;
5475;SDS011;2760;50.000;9.194;2023-06-19T12:38:35;11.87;;;5.60;;
5475;SDS011;2760;50.000;9.194;2023-06-19T12:41:27;6.00;;;5.40;;
5475;SDS011;2760;50.000;9.194;2023-06-19T12:44:13;5.50;;;5.10;;
5475;SDS011;2760;50.000;9.194;2023-06-19T12:46:54;7.27;;;6.10;;
5475;SDS011;2760;50.000;9.194;2023-06-19T12:49:36;9.13;;;5.50;;
5475;SDS011;2760;50.000;9.194;2023-06-19T12:52:22;6.50;;;5.90;;
5475;SDS011;2760;50.000;9.194;2023-06-19T12:55:05;6.33;;;4.83;;
5475;SDS011;2760;50.000;9.194;2023-06-19T12:57:49;5.70;;;5.20;;
5475;SDS011;2760;50.000;9.194;2023-06-19T13:00:39;8.80;;;5.80;;
5475;SDS011;2760;50.000;9.194;2023-06-19T13:03:21;5.87;;;5.30;;
5475;SDS011;2760;50.000;9.194;2023-06-19T13:05:52;9.77;;;5.80;;
5475;SDS011;2760;50.000;9.194;2023-06-19T13:11:58;6.30;;;5.70;;
5475;SDS011;2760;50.000;9.194;2023-06-19T13:14:39;6.37;;;5.67;;
5475;SDS011;2760;50.000;9.194;2023-06-19T13:17:21;6.83;;;5.37;;
5475;SDS011;2760;50.000;9.194;2023-06-19T13:20:06;9.93;;;5.93;;
5475;SDS011;2760;50.000;9.194;2023-06-19T13:22:50;9.50;;;5.23;;
5475;SDS011;2760;50.000;9.194;2023-06-19T13:25:20;5.60;;;5.20;;
5475;SDS011;2760;50.000;9.194;2023-06-19T13:28:18;7.20;;;5.13;;
5475;SDS011;2760;50.000;9.194;2023-06-19T13:31:04;6.73;;;4.70;;
5475;SDS011;2760;50.000;9.194;2023-06-19T13:33:48;5.70;;;5.20;;
5475;SDS011;2760;50.000;9.194;2023-06-19T13:36:29;6.27;;;5.57;;
5475;SDS011;2760;50.000;9.194;2023-06-19T13:39:10;7.33;;;5.50;;
5475;SDS011;2760;50.000;9.194;2023-06-19T13:41:53;6.20;;;5.33;;
5475;SDS011;2760;50.000;9.194;2023-06-19T13:50:59;7.10;;;5.00;;
5475;SDS011;2760;50.000;9.194;2023-06-19T13:53:30;8.73;;;5.93;;
5475;SDS011;2760;50.000;9.194;2023-06-19T13:56:12;7.40;;;5.37;;
5475;SDS011;2760;50.000;9.194;2023-06-19T13:59:04;9.43;;;6.03;;
5475;SDS011;2760;50.000;9.194;2023-06-19T14:01:43;6.17;;;5.57;;
5475;SDS011;2760;50.000;9.194;2023-06-19T14:14:34;10.83;;;6.00;;
5475;SDS011;2760;50.000;9.194;2023-06-19T14:17:06;6.37;;;5.77;;
5475;SDS011;2760;50.000;9.194;2023-06-19T14:19:48;6.03;;;5.43;;
5475;SDS011;2760;50.000;9.194;2023-06-19T14:22:31;6.33;;;5.50;;
5475;SDS011;2760;50.000;9.194;2023-06-19T14:25:00;7.97;;;6.00;;
5475;SDS011;2760;50.000;9.194;2023-06-19T14:27:41;10.90;;;5.90;;
5475;SDS011;2760;50.000;9.194;2023-06-19T14:40:05;7.43;;;5.90;;
5475;SDS011;2760;50.000;9.194;2023-06-19T14:42:47;7.17;;;5.87;;
5475;SDS011;2760;50.000;9.194;2023-06-19T14:45:15;7.07;;;6.47;;
5475;SDS011;2760;50.000;9.194;2023-06-19T14:47:43;7.10;;;5.77;;
5475;SDS011;2760;50.000;9.194;2023-06-19T14:50:11;6.07;;;5.27;;
5475;SDS011;2760;50.000;9.194;2023-06-19T14:52:41;9.90;;;6.10;;
5475;SDS011;2760;50.000;9.194;2023-06-19T14:58:08;6.27;;;5.67;;
5475;SDS011;2760;50.000;9.194;2023-06-19T15:00:49;6.00;;;5.50;;
5475;SDS011;2760;50.000;9.194;2023-06-19T15:03:17;9.33;;;6.03;;
5475;SDS011;2760;50.000;9.194;2023-06-19T15:05:44;8.40;;;5.90;;
5475;SDS011;2760;50.000;9.194;2023-06-19T15:08:13;6.60;;;5.93;;
5475;SDS011;2760;50.000;9.194;2023-06-19T15:11:02;7.00;;;5.80;;
5475;SDS011;2760;50.000;9.194;2023-06-19T15:13:30;6.23;;;5.63;;
5475;SDS011;2760;50.000;9.194;2023-06-19T15:16:11;6.00;;;5.40;;
5475;SDS011;2760;50.000;9.194;2023-06-19T15:18:53;11.03;;;7.20;;
5475;SDS011;2760;50.000;9.194;2023-06-19T15:21:34;5.87;;;5.37;;
5475;SDS011;2760;50.000;9.194;2023-06-19T15:24:14;7.43;;;6.10;;
5475;SDS011;2760;50.000;9.194;2023-06-19T15:29:53;8.50;;;6.13;;
5475;SDS011;2760;50.000;9.194;2023-06-19T15:32:25;7.10;;;6.40;;
5475;SDS011;2760;50.000;9.194;2023-06-19T15:34:53;8.03;;;5.80;;
5475;SDS011;2760;50.000;9.194;2023-06-19T15:37:30;8.47;;;6.37;;
5475;SDS011;2760;50.000;9.194;2023-06-19T15:39:58;6.27;;;5.77;;
5475;SDS011;2760;50.000;9.194;2023-06-19T15:42:26;6.50;;;5.90;;
5475;SDS011;2760;50.000;9.194;2023-06-19T15:44:56;6.77;;;6.17;;
5475;SDS011;2760;50.000;9.194;2023-06-19T15:47:23;7.93;;;6.20;;
5475;SDS011;2760;50.000;9.194;2023-06-19T15:49:57;7.20;;;6.37;;
5475;SDS011;2760;50.000;9.194;2023-06-19T15:52:25;5.90;;;5.40;;
5475;SDS011;2760;50.000;9.194;2023-06-19T15:55:00;9.10;;;5.80;;
5475;SDS011;2760;50.000;9.194;2023-06-19T15:57:28;6.40;;;5.80;;
5475;SDS011;2760;50.000;9.194;2023-06-19T16:00:06;6.47;;;5.97;;
5475;SDS011;2760;50.000;9.194;2023-06-19T16:02:39;8.07;;;6.33;;
5475;SDS011;2760;50.000;9.194;2023-06-19T16:05:08;17.73;;;14.07;;
5475;SDS011;2760;50.000;9.194;2023-06-19T16:07:36;7.67;;;6.10;;
5475;SDS011;2760;50.000;9.194;2023-06-19T16:10:05;9.17;;;5.37;;
5475;SDS011;2760;50.000;9.194;2023-06-19T16:12:34;7.10;;;5.57;;
5475;SDS011;2760;50.000;9.194;2023-06-19T16:15:04;5.77;;;5.27;;
5475;SDS011;2760;50.000;9.194;2023-06-19T16:17:47;5.97;;;5.40;;
5475;SDS011;2760;50.000;9.194;2023-06-19T16:20:19;6.63;;;5.70;;
5475;SDS011;2760;50.000;9.194;2023-06-19T16:23:00;6.10;;;5.60;;
5475;SDS011;2760;50.000;9.194;2023-06-19T16:25:27;5.93;;;5.43;;
5475;SDS011;2760;50.000;9.194;2023-06-19T16:27:55;6.80;;;6.20;;
5475;SDS011;2760;50.000;9.194;2023-06-19T16:30:28;7.83;;;5.40;;
5475;SDS011;2760;50.000;9.194;2023-06-19T16:32:58;6.80;;;5.87;;
5475;SDS011;2760;50.000;9.194;2023-06-19T16:35:27;6.77;;;6.07;;
5475;SDS011;2760;50.000;9.194;2023-06-19T16:37:55;9.23;;;5.30;;
5475;SDS011;2760;50.000;9.194;2023-06-19T16:40:23;7.53;;;6.60;;
5475;SDS011;2760;50.000;9.194;2023-06-19T16:42:51;6.57;;;5.97;;
5475;SDS011;2760;50.000;9.194;2023-06-19T16:45:20;6.03;;;5.43;;
5475;SDS011;2760;50.000;9.194;2023-06-19T16:47:56;7.23;;;6.20;;
5475;SDS011;2760;50.000;9.194;2023-06-19T16:50:35;6.40;;;5.80;;
5475;SDS011;2760;50.000;9.194;2023-06-19T16:53:07;6.13;;;5.53;;
5475;SDS011;2760;50.000;9.194;2023-06-19T16:55:37;6.63;;;4.77;;
5475;SDS011;2760;50.000;9.194;2023-06-19T16:58:04;6.60;;;4.80;;
5475;SDS011;2760;50.000;9.194;2023-06-19T17:00:32;8.60;;;4.80;;
5475;SDS011;2760;50.000;9.194;2023-06-19T17:03:03;5.50;;;4.63;;